sensor_id;sensor_type;location;lat;lon;timestamp;temperature;humidity
24802;DHT22;12898;50.520;12.152;2023-02-15T00:01:47;0.40;99.90
24802;DHT22;12898;50.520;12.152;2023-02-15T00:04:15;0.40;99.90
24802;DHT22;12898;50.520;12.152;2023-02-15T00:06:42;0.40;99.90
24802;DHT22;12898;50.520;12.152;2023-02-15T00:09:09;0.30;99.90
24802;DHT22;12898;50.520;12.152;2023-02-15T00:11:35;0.40;99.90
24802;DHT22;12898;50.520;12.152;2023-02-15T00:14:22;0.30;99.90
24802;DHT22;12898;50.520;12.152;2023-02-15T00:16:49;0.30;99.90
24802;DHT22;12898;50.520;12.152;2023-02-15T00:19:17;0.30;99.90
24802;DHT22;12898;50.520;12.152;2023-02-15T00:21:45;0.30;99.90
24802;DHT22;12898;50.520;12.152;2023-02-15T00:24:13;0.20;99.90
24802;DHT22;12898;50.520;12.152;2023-02-15T00:26:41;0.20;99.90
24802;DHT22;12898;50.520;12.152;2023-02-15T00:29:07;0.20;99.90
24802;DHT22;12898;50.520;12.152;2023-02-15T00:31:34;0.20;99.90
24802;DHT22;12898;50.520;12.152;2023-02-15T00:34:03;0.20;99.90
24802;DHT22;12898;50.520;12.152;2023-02-15T00:36:41;0.10;99.90
24802;DHT22;12898;50.520;12.152;2023-02-15T00:39:07;0.10;99.90
24802;DHT22;12898;50.520;12.152;2023-02-15T00:41:34;0.10;99.90
24802;DHT22;12898;50.520;12.152;2023-02-15T00:44:00;0.10;99.90
24802;DHT22;12898;50.520;12.152;2023-02-15T00:46:26;0.10;99.90
24802;DHT22;12898;50.520;12.152;2023-02-15T00:48:51;0.10;99.90
24802;DHT22;12898;50.520;12.152;2023-02-15T00:51:17;0.10;99.90
24802;DHT22;12898;50.520;12.152;2023-02-15T00:53:43;0.00;99.90
24802;DHT22;12898;50.520;12.152;2023-02-15T00:56:10;0.00;99.90
24802;DHT22;12898;50.520;12.152;2023-02-15T00:58:36;-0.10;99.90
24802;DHT22;12898;50.520;12.152;2023-02-15T01:01:04;0.00;99.90
24802;DHT22;12898;50.520;12.152;2023-02-15T01:03:31;-0.10;99.90
24802;DHT22;12898;50.520;12.152;2023-02-15T01:05:57;-0.10;99.90
24802;DHT22;12898;50.520;12.152;2023-02-15T01:08:23;-0.20;99.90
24802;DHT22;12898;50.520;12.152;2023-02-15T01:10:48;-0.20;99.90
24802;DHT22;12898;50.520;12.152;2023-02-15T01:13:15;-0.20;99.90
24802;DHT22;12898;50.520;12.152;2023-02-15T01:15:42;-0.20;99.90
24802;DHT22;12898;50.520;12.152;2023-02-15T01:18:09;-0.30;99.90
24802;DHT22;12898;50.520;12.152;2023-02-15T01:20:37;-0.30;99.90
24802;DHT22;12898;50.520;12.152;2023-02-15T01:23:05;-0.40;99.90
24802;DHT22;12898;50.520;12.152;2023-02-15T01:25:33;-0.40;99.90
24802;DHT22;12898;50.520;12.152;2023-02-15T01:27:59;-0.40;99.90
24802;DHT22;12898;50.520;12.152;2023-02-15T01:30:26;-0.50;99.90
24802;DHT22;12898;50.520;12.152;2023-02-15T01:32:52;-0.50;99.90
24802;DHT22;12898;50.520;12.152;2023-02-15T01:35:17;-0.60;99.90
24802;DHT22;12898;50.520;12.152;2023-02-15T01:37:43;-0.60;99.90
24802;DHT22;12898;50.520;12.152;2023-02-15T01:40:13;-0.70;99.90
24802;DHT22;12898;50.520;12.152;2023-02-15T01:42:41;-0.60;99.90
24802;DHT22;12898;50.520;12.152;2023-02-15T01:45:30;-0.70;99.90
24802;DHT22;12898;50.520;12.152;2023-02-15T01:48:19;-0.60;99.90
24802;DHT22;12898;50.520;12.152;2023-02-15T01:50:52;-0.70;99.90
24802;DHT22;12898;50.520;12.152;2023-02-15T01:53:25;-0.70;99.90
24802;DHT22;12898;50.520;12.152;2023-02-15T01:56:03;-0.70;99.90
24802;DHT22;12898;50.520;12.152;2023-02-15T01:58:32;-0.70;99.90
24802;DHT22;12898;50.520;12.152;2023-02-15T02:01:00;-0.80;99.90
24802;DHT22;12898;50.520;12.152;2023-02-15T02:06:19;-0.90;99.90
24802;DHT22;12898;50.520;12.152;2023-02-15T02:08:46;-0.90;99.90
24802;DHT22;12898;50.520;12.152;2023-02-15T02:11:13;-1.00;99.90
24802;DHT22;12898;50.520;12.152;2023-02-15T02:13:40;-1.00;99.90
24802;DHT22;12898;50.520;12.152;2023-02-15T02:16:15;-1.00;99.90
24802;DHT22;12898;50.520;12.152;2023-02-15T02:27:40;-1.20;99.90
24802;DHT22;12898;50.520;12.152;2023-02-15T02:30:42;-1.20;99.90
24802;DHT22;12898;50.520;12.152;2023-02-15T02:33:38;-1.30;99.90
24802;DHT22;12898;50.520;12.152;2023-02-15T02:36:15;-1.30;99.90
24802;DHT22;12898;50.520;12.152;2023-02-15T02:39:07;-1.30;99.90
24802;DHT22;12898;50.520;12.152;2023-02-15T02:44:47;-1.30;99.90
24802;DHT22;12898;50.520;12.152;2023-02-15T02:47:22;-1.30;99.90
24802;DHT22;12898;50.520;12.152;2023-02-15T02:50:04;-1.30;99.90
24802;DHT22;12898;50.520;12.152;2023-02-15T03:00:56;-1.40;99.90
24802;DHT22;12898;50.520;12.152;2023-02-15T03:03:34;-1.40;99.90
24802;DHT22;12898;50.520;12.152;2023-02-15T03:06:06;-1.40;99.90
24802;DHT22;12898;50.520;12.152;2023-02-15T03:08:40;-1.50;99.90
24802;DHT22;12898;50.520;12.152;2023-02-15T03:11:08;-1.50;99.90
24802;DHT22;12898;50.520;12.152;2023-02-15T03:13:35;-1.40;99.90
24802;DHT22;12898;50.520;12.152;2023-02-15T03:16:01;-1.40;99.90
24802;DHT22;12898;50.520;12.152;2023-02-15T03:18:53;-1.40;99.90
24802;DHT22;12898;50.520;12.152;2023-02-15T03:21:50;-1.40;99.90
24802;DHT22;12898;50.520;12.152;2023-02-15T03:24:34;-1.40;99.90
24802;DHT22;12898;50.520;12.152;2023-02-15T03:27:07;-1.40;99.90
24802;DHT22;12898;50.520;12.152;2023-02-15T03:29:38;-1.40;99.90
24802;DHT22;12898;50.520;12.152;2023-02-15T03:32:08;-1.40;99.90
24802;DHT22;12898;50.520;12.152;2023-02-15T03:34:35;-1.40;99.90
24802;DHT22;12898;50.520;12.152;2023-02-15T03:39:47;-1.40;99.90
24802;DHT22;12898;50.520;12.152;2023-02-15T03:42:32;-1.40;99.90
24802;DHT22;12898;50.520;12.152;2023-02-15T03:45:02;-1.40;99.90
24802;DHT22;12898;50.520;12.152;2023-02-15T03:47:33;-1.40;99.90
24802;DHT22;12898;50.520;12.152;2023-02-15T03:53:03;-1.50;99.90
24802;DHT22;12898;50.520;12.152;2023-02-15T03:55:33;-1.50;99.90
24802;DHT22;12898;50.520;12.152;2023-02-15T03:57:59;-1.50;99.90
24802;DHT22;12898;50.520;12.152;2023-02-15T04:00:51;-1.50;99.90
24802;DHT22;12898;50.520;12.152;2023-02-15T04:03:48;-1.50;99.90
24802;DHT22;12898;50.520;12.152;2023-02-15T04:06:20;-1.50;99.90
24802;DHT22;12898;50.520;12.152;2023-02-15T04:08:45;-1.50;99.90
24802;DHT22;12898;50.520;12.152;2023-02-15T04:11:30;-1.40;99.90
24802;DHT22;12898;50.520;12.152;2023-02-15T04:13:56;-1.40;99.90
24802;DHT22;12898;50.520;12.152;2023-02-15T04:16:24;-1.40;99.90
24802;DHT22;12898;50.520;12.152;2023-02-15T04:18:50;-1.30;99.90
24802;DHT22;12898;50.520;12.152;2023-02-15T04:21:34;-1.40;99.90
24802;DHT22;12898;50.520;12.152;2023-02-15T04:24:18;-1.30;99.90
24802;DHT22;12898;50.520;12.152;2023-02-15T04:27:04;-1.30;99.90
24802;DHT22;12898;50.520;12.152;2023-02-15T04:29:30;-1.30;99.90
24802;DHT22;12898;50.520;12.152;2023-02-15T04:31:59;-1.20;99.90
24802;DHT22;12898;50.520;12.152;2023-02-15T04:34:26;-1.20;99.90
24802;DHT22;12898;50.520;12.152;2023-02-15T04:36:51;-1.30;99.90
24802;DHT22;12898;50.520;12.152;2023-02-15T04:39:18;-1.30;99.90
24802;DHT22;12898;50.520;12.152;2023-02-15T04:41:45;-1.30;99.90
24802;DHT22;12898;50.520;12.152;2023-02-15T04:44:11;-1.30;99.90
24802;DHT22;12898;50.520;12.152;2023-02-15T04:46:37;-1.30;99.90
24802;DHT22;12898;50.520;12.152;2023-02-15T04:49:03;-1.30;99.90
24802;DHT22;12898;50.520;12.152;2023-02-15T04:51:29;-1.30;99.90
24802;DHT22;12898;50.520;12.152;2023-02-15T04:53:54;-1.30;99.90
24802;DHT22;12898;50.520;12.152;2023-02-15T04:56:21;-1.30;99.90
24802;DHT22;12898;50.520;12.152;2023-02-15T04:58:47;-1.30;99.90
24802;DHT22;12898;50.520;12.152;2023-02-15T05:01:13;-1.40;99.90
24802;DHT22;12898;50.520;12.152;2023-02-15T05:03:39;-1.40;99.90
24802;DHT22;12898;50.520;12.152;2023-02-15T05:06:05;-1.50;99.90
24802;DHT22;12898;50.520;12.152;2023-02-15T05:08:31;-1.50;99.90
24802;DHT22;12898;50.520;12.152;2023-02-15T05:10:57;-1.50;99.90
24802;DHT22;12898;50.520;12.152;2023-02-15T05:13:23;-1.50;99.90
24802;DHT22;12898;50.520;12.152;2023-02-15T05:15:50;-1.60;99.90
24802;DHT22;12898;50.520;12.152;2023-02-15T05:18:17;-1.60;99.90
24802;DHT22;12898;50.520;12.152;2023-02-15T05:20:44;-1.60;99.90
24802;DHT22;12898;50.520;12.152;2023-02-15T05:23:10;-1.50;99.90
24802;DHT22;12898;50.520;12.152;2023-02-15T05:25:36;-1.50;99.90
24802;DHT22;12898;50.520;12.152;2023-02-15T05:28:21;-1.60;99.90
24802;DHT22;12898;50.520;12.152;2023-02-15T05:31:31;-1.60;99.90
24802;DHT22;12898;50.520;12.152;2023-02-15T05:33:44;-1.60;99.90
24802;DHT22;12898;50.520;12.152;2023-02-15T05:36:10;-1.50;99.90
24802;DHT22;12898;50.520;12.152;2023-02-15T05:38:36;-1.60;99.90
24802;DHT22;12898;50.520;12.152;2023-02-15T05:41:05;-1.60;99.90
24802;DHT22;12898;50.520;12.152;2023-02-15T05:43:32;-1.70;99.90
24802;DHT22;12898;50.520;12.152;2023-02-15T05:45:58;-1.70;99.90
24802;DHT22;12898;50.520;12.152;2023-02-15T05:48:26;-1.70;99.90
24802;DHT22;12898;50.520;12.152;2023-02-15T05:51:05;-1.80;99.90
24802;DHT22;12898;50.520;12.152;2023-02-15T05:53:37;-1.80;99.90
24802;DHT22;12898;50.520;12.152;2023-02-15T05:56:04;-1.90;99.90
24802;DHT22;12898;50.520;12.152;2023-02-15T05:58:34;-1.90;99.90
24802;DHT22;12898;50.520;12.152;2023-02-15T06:01:14;-1.90;99.90
24802;DHT22;12898;50.520;12.152;2023-02-15T06:03:42;-1.90;99.90
24802;DHT22;12898;50.520;12.152;2023-02-15T06:06:09;-1.90;99.90
24802;DHT22;12898;50.520;12.152;2023-02-15T06:08:36;-1.80;99.90
24802;DHT22;12898;50.520;12.152;2023-02-15T06:11:03;-1.80;99.90
24802;DHT22;12898;50.520;12.152;2023-02-15T06:13:29;-1.80;99.90
24802;DHT22;12898;50.520;12.152;2023-02-15T06:15:55;-1.80;99.90
24802;DHT22;12898;50.520;12.152;2023-02-15T06:18:20;-1.80;99.90
24802;DHT22;12898;50.520;12.152;2023-02-15T06:20:46;-1.80;99.90
24802;DHT22;12898;50.520;12.152;2023-02-15T06:23:12;-1.80;99.90
24802;DHT22;12898;50.520;12.152;2023-02-15T06:25:38;-1.80;99.90
24802;DHT22;12898;50.520;12.152;2023-02-15T06:28:04;-1.80;99.90
24802;DHT22;12898;50.520;12.152;2023-02-15T06:30:30;-1.80;99.90
24802;DHT22;12898;50.520;12.152;2023-02-15T06:32:56;-1.80;99.90
24802;DHT22;12898;50.520;12.152;2023-02-15T06:35:22;-1.80;99.90
24802;DHT22;12898;50.520;12.152;2023-02-15T06:37:48;-1.70;99.90
24802;DHT22;12898;50.520;12.152;2023-02-15T06:40:14;-1.80;99.90
24802;DHT22;12898;50.520;12.152;2023-02-15T06:42:43;-1.80;99.90
24802;DHT22;12898;50.520;12.152;2023-02-15T06:45:10;-1.70;99.90
24802;DHT22;12898;50.520;12.152;2023-02-15T06:47:36;-1.70;99.90
24802;DHT22;12898;50.520;12.152;2023-02-15T06:50:03;-1.70;99.90
24802;DHT22;12898;50.520;12.152;2023-02-15T06:52:30;-1.60;99.90
24802;DHT22;12898;50.520;12.152;2023-02-15T06:54:56;-1.60;99.90
24802;DHT22;12898;50.520;12.152;2023-02-15T06:57:22;-1.50;99.90
24802;DHT22;12898;50.520;12.152;2023-02-15T06:59:48;-1.50;99.90
24802;DHT22;12898;50.520;12.152;2023-02-15T07:02:14;-1.40;99.90
24802;DHT22;12898;50.520;12.152;2023-02-15T07:04:40;-1.40;99.90
24802;DHT22;12898;50.520;12.152;2023-02-15T07:07:09;-1.30;99.90
24802;DHT22;12898;50.520;12.152;2023-02-15T07:09:35;-1.20;99.90
24802;DHT22;12898;50.520;12.152;2023-02-15T07:12:02;-1.20;99.90
24802;DHT22;12898;50.520;12.152;2023-02-15T07:14:46;-1.10;99.90
24802;DHT22;12898;50.520;12.152;2023-02-15T07:17:11;-1.00;99.90
24802;DHT22;12898;50.520;12.152;2023-02-15T07:19:37;-0.90;99.90
24802;DHT22;12898;50.520;12.152;2023-02-15T07:22:03;-0.90;99.90
24802;DHT22;12898;50.520;12.152;2023-02-15T07:24:30;-0.80;99.90
24802;DHT22;12898;50.520;12.152;2023-02-15T07:26:56;-0.70;99.90
24802;DHT22;12898;50.520;12.152;2023-02-15T07:29:22;-0.60;99.90
24802;DHT22;12898;50.520;12.152;2023-02-15T07:31:48;-0.60;99.90
24802;DHT22;12898;50.520;12.152;2023-02-15T07:34:14;-0.50;99.90
24802;DHT22;12898;50.520;12.152;2023-02-15T07:36:41;-0.40;99.90
24802;DHT22;12898;50.520;12.152;2023-02-15T07:39:06;-0.30;99.90
24802;DHT22;12898;50.520;12.152;2023-02-15T07:41:32;-0.10;99.90
24802;DHT22;12898;50.520;12.152;2023-02-15T07:43:58;0.00;99.90
24802;DHT22;12898;50.520;12.152;2023-02-15T07:46:23;0.20;99.90
24802;DHT22;12898;50.520;12.152;2023-02-15T07:48:49;0.30;99.90
24802;DHT22;12898;50.520;12.152;2023-02-15T07:51:15;0.40;99.90
24802;DHT22;12898;50.520;12.152;2023-02-15T07:53:41;0.50;99.90
24802;DHT22;12898;50.520;12.152;2023-02-15T07:56:10;0.70;99.90
24802;DHT22;12898;50.520;12.152;2023-02-15T07:58:37;0.80;99.90
24802;DHT22;12898;50.520;12.152;2023-02-15T08:01:40;1.00;99.90
24802;DHT22;12898;50.520;12.152;2023-02-15T08:04:06;1.10;99.90
24802;DHT22;12898;50.520;12.152;2023-02-15T08:06:35;1.20;99.90
24802;DHT22;12898;50.520;12.152;2023-02-15T08:09:04;1.40;99.90
24802;DHT22;12898;50.520;12.152;2023-02-15T08:11:32;1.50;99.90
24802;DHT22;12898;50.520;12.152;2023-02-15T08:19:10;1.90;99.90
24802;DHT22;12898;50.520;12.152;2023-02-15T08:22:00;2.00;99.90
24802;DHT22;12898;50.520;12.152;2023-02-15T08:24:28;2.10;99.90
24802;DHT22;12898;50.520;12.152;2023-02-15T08:26:57;2.20;99.90
24802;DHT22;12898;50.520;12.152;2023-02-15T08:29:25;2.40;99.90
24802;DHT22;12898;50.520;12.152;2023-02-15T08:31:57;2.60;99.90
24802;DHT22;12898;50.520;12.152;2023-02-15T08:34:27;2.70;99.90
24802;DHT22;12898;50.520;12.152;2023-02-15T08:36:54;2.80;99.90
24802;DHT22;12898;50.520;12.152;2023-02-15T08:39:20;2.90;99.90
24802;DHT22;12898;50.520;12.152;2023-02-15T08:41:47;3.00;99.90
24802;DHT22;12898;50.520;12.152;2023-02-15T08:44:15;3.20;99.90
24802;DHT22;12898;50.520;12.152;2023-02-15T08:46:43;3.30;99.90
24802;DHT22;12898;50.520;12.152;2023-02-15T08:49:16;3.50;99.90
24802;DHT22;12898;50.520;12.152;2023-02-15T08:51:44;3.50;99.90
24802;DHT22;12898;50.520;12.152;2023-02-15T08:54:12;3.60;99.90
24802;DHT22;12898;50.520;12.152;2023-02-15T08:56:41;3.80;99.90
24802;DHT22;12898;50.520;12.152;2023-02-15T08:59:18;3.90;99.90
24802;DHT22;12898;50.520;12.152;2023-02-15T09:01:46;4.00;99.90
24802;DHT22;12898;50.520;12.152;2023-02-15T09:04:13;4.20;99.90
24802;DHT22;12898;50.520;12.152;2023-02-15T09:06:41;4.10;99.90
24802;DHT22;12898;50.520;12.152;2023-02-15T09:09:10;4.20;99.90
24802;DHT22;12898;50.520;12.152;2023-02-15T09:11:38;4.30;99.90
24802;DHT22;12898;50.520;12.152;2023-02-15T09:14:11;4.60;99.90
24802;DHT22;12898;50.520;12.152;2023-02-15T09:16:39;4.70;99.90
24802;DHT22;12898;50.520;12.152;2023-02-15T09:19:07;4.70;99.90
24802;DHT22;12898;50.520;12.152;2023-02-15T09:21:36;4.70;99.90
24802;DHT22;12898;50.520;12.152;2023-02-15T09:24:06;4.80;99.90
24802;DHT22;12898;50.520;12.152;2023-02-15T09:26:35;5.00;99.90
24802;DHT22;12898;50.520;12.152;2023-02-15T09:29:03;5.20;99.90
24802;DHT22;12898;50.520;12.152;2023-02-15T09:31:31;5.10;99.90
24802;DHT22;12898;50.520;12.152;2023-02-15T09:34:00;5.20;99.90
24802;DHT22;12898;50.520;12.152;2023-02-15T09:36:28;5.40;99.90
24802;DHT22;12898;50.520;12.152;2023-02-15T09:39:07;5.50;99.90
24802;DHT22;12898;50.520;12.152;2023-02-15T09:44:48;5.80;99.90
24802;DHT22;12898;50.520;12.152;2023-02-15T09:56:10;6.60;99.90
24802;DHT22;12898;50.520;12.152;2023-02-15T10:13:14;7.70;99.90
24802;DHT22;12898;50.520;12.152;2023-02-15T10:15:59;7.90;99.90
24802;DHT22;12898;50.520;12.152;2023-02-15T10:18:49;8.00;99.90
24802;DHT22;12898;50.520;12.152;2023-02-15T10:21:46;8.20;98.20
24802;DHT22;12898;50.520;12.152;2023-02-15T10:27:48;8.40;99.40
24802;DHT22;12898;50.520;12.152;2023-02-15T10:30:30;8.60;96.60
24802;DHT22;12898;50.520;12.152;2023-02-15T10:33:02;8.90;96.30
24802;DHT22;12898;50.520;12.152;2023-02-15T10:35:47;8.80;95.00
24802;DHT22;12898;50.520;12.152;2023-02-15T10:38:40;8.80;95.10
24802;DHT22;12898;50.520;12.152;2023-02-15T10:50:06;8.90;94.30
24802;DHT22;12898;50.520;12.152;2023-02-15T10:52:55;8.80;95.90
24802;DHT22;12898;50.520;12.152;2023-02-15T11:07:16;9.70;91.40
24802;DHT22;12898;50.520;12.152;2023-02-15T11:10:35;9.80;91.40
24802;DHT22;12898;50.520;12.152;2023-02-15T11:12:49;9.80;88.80
24802;DHT22;12898;50.520;12.152;2023-02-15T11:15:24;9.90;90.70
24802;DHT22;12898;50.520;12.152;2023-02-15T11:18:05;10.00;90.20
24802;DHT22;12898;50.520;12.152;2023-02-15T11:23:24;9.90;84.20
24802;DHT22;12898;50.520;12.152;2023-02-15T11:26:04;9.90;89.50
24802;DHT22;12898;50.520;12.152;2023-02-15T11:29:00;10.20;88.00
24802;DHT22;12898;50.520;12.152;2023-02-15T11:34:24;10.40;87.80
24802;DHT22;12898;50.520;12.152;2023-02-15T11:36:54;10.50;88.50
24802;DHT22;12898;50.520;12.152;2023-02-15T11:39:21;10.60;84.10
24802;DHT22;12898;50.520;12.152;2023-02-15T11:41:54;10.70;88.20
24802;DHT22;12898;50.520;12.152;2023-02-15T11:44:30;10.70;87.60
24802;DHT22;12898;50.520;12.152;2023-02-15T11:46:59;10.90;88.70
24802;DHT22;12898;50.520;12.152;2023-02-15T11:49:32;11.00;86.70
24802;DHT22;12898;50.520;12.152;2023-02-15T11:52:02;11.20;87.10
24802;DHT22;12898;50.520;12.152;2023-02-15T11:54:33;11.20;83.00
24802;DHT22;12898;50.520;12.152;2023-02-15T11:57:33;11.30;81.10
24802;DHT22;12898;50.520;12.152;2023-02-15T12:00:31;11.20;81.50
24802;DHT22;12898;50.520;12.152;2023-02-15T12:03:12;11.30;80.90
24802;DHT22;12898;50.520;12.152;2023-02-15T12:05:45;11.20;79.00
24802;DHT22;12898;50.520;12.152;2023-02-15T12:08:21;11.40;79.00
24802;DHT22;12898;50.520;12.152;2023-02-15T12:11:00;11.50;74.20
24802;DHT22;12898;50.520;12.152;2023-02-15T12:13:29;11.70;74.90
24802;DHT22;12898;50.520;12.152;2023-02-15T12:15:57;11.80;73.20
24802;DHT22;12898;50.520;12.152;2023-02-15T12:21:06;12.00;70.10
24802;DHT22;12898;50.520;12.152;2023-02-15T12:24:02;11.70;69.60
24802;DHT22;12898;50.520;12.152;2023-02-15T12:26:30;11.70;71.40
24802;DHT22;12898;50.520;12.152;2023-02-15T12:29:17;11.60;69.00
24802;DHT22;12898;50.520;12.152;2023-02-15T12:31:48;11.70;71.20
24802;DHT22;12898;50.520;12.152;2023-02-15T12:34:24;11.70;71.00
24802;DHT22;12898;50.520;12.152;2023-02-15T12:36:53;11.90;72.00
24802;DHT22;12898;50.520;12.152;2023-02-15T12:39:32;11.90;66.90
24802;DHT22;12898;50.520;12.152;2023-02-15T12:42:05;11.70;67.50
24802;DHT22;12898;50.520;12.152;2023-02-15T12:47:25;11.60;69.20
24802;DHT22;12898;50.520;12.152;2023-02-15T12:50:13;11.50;69.60
24802;DHT22;12898;50.520;12.152;2023-02-15T12:52:46;11.50;68.20
24802;DHT22;12898;50.520;12.152;2023-02-15T12:55:25;11.50;70.10
24802;DHT22;12898;50.520;12.152;2023-02-15T12:58:13;11.70;71.70
24802;DHT22;12898;50.520;12.152;2023-02-15T13:00:42;11.70;67.70
24802;DHT22;12898;50.520;12.152;2023-02-15T13:03:20;11.60;68.20
24802;DHT22;12898;50.520;12.152;2023-02-15T13:05:50;11.60;70.50
24802;DHT22;12898;50.520;12.152;2023-02-15T13:08:22;11.60;68.40
24802;DHT22;12898;50.520;12.152;2023-02-15T13:11:02;11.70;68.50
24802;DHT22;12898;50.520;12.152;2023-02-15T13:13:31;11.70;68.70
24802;DHT22;12898;50.520;12.152;2023-02-15T13:16:05;11.70;67.50
24802;DHT22;12898;50.520;12.152;2023-02-15T13:18:41;11.70;68.60
24802;DHT22;12898;50.520;12.152;2023-02-15T13:21:12;11.70;66.00
24802;DHT22;12898;50.520;12.152;2023-02-15T13:23:44;11.70;67.50
24802;DHT22;12898;50.520;12.152;2023-02-15T13:26:20;11.80;66.40
24802;DHT22;12898;50.520;12.152;2023-02-15T13:28:54;11.80;66.50
24802;DHT22;12898;50.520;12.152;2023-02-15T13:31:24;11.80;62.90
24802;DHT22;12898;50.520;12.152;2023-02-15T13:34:17;11.60;65.30
24802;DHT22;12898;50.520;12.152;2023-02-15T13:36:51;11.70;64.60
24802;DHT22;12898;50.520;12.152;2023-02-15T13:42:26;11.80;66.30
24802;DHT22;12898;50.520;12.152;2023-02-15T13:59:22;12.20;65.80
24802;DHT22;12898;50.520;12.152;2023-02-15T14:08:04;12.60;66.10
24802;DHT22;12898;50.520;12.152;2023-02-15T14:10:58;12.60;65.30
24802;DHT22;12898;50.520;12.152;2023-02-15T14:19:44;12.20;62.80
24802;DHT22;12898;50.520;12.152;2023-02-15T14:27:50;12.00;64.30
24802;DHT22;12898;50.520;12.152;2023-02-15T14:30:34;12.00;68.00
24802;DHT22;12898;50.520;12.152;2023-02-15T14:33:07;12.10;65.00
24802;DHT22;12898;50.520;12.152;2023-02-15T14:35:40;12.00;63.80
24802;DHT22;12898;50.520;12.152;2023-02-15T14:41:00;12.00;64.00
24802;DHT22;12898;50.520;12.152;2023-02-15T14:47:13;12.10;65.40
24802;DHT22;12898;50.520;12.152;2023-02-15T14:49:53;12.00;62.60
24802;DHT22;12898;50.520;12.152;2023-02-15T14:52:18;12.00;64.80
24802;DHT22;12898;50.520;12.152;2023-02-15T15:05:24;11.70;64.40
24802;DHT22;12898;50.520;12.152;2023-02-15T15:07:55;11.60;63.40
24802;DHT22;12898;50.520;12.152;2023-02-15T15:12:48;11.40;66.00
24802;DHT22;12898;50.520;12.152;2023-02-15T15:18:02;11.30;66.90
24802;DHT22;12898;50.520;12.152;2023-02-15T15:20:51;11.20;63.60
24802;DHT22;12898;50.520;12.152;2023-02-15T15:31:39;10.70;66.90
24802;DHT22;12898;50.520;12.152;2023-02-15T15:48:37;10.10;69.40
24802;DHT22;12898;50.520;12.152;2023-02-15T15:51:14;9.90;70.80
24802;DHT22;12898;50.520;12.152;2023-02-15T15:53:47;9.70;71.10
24802;DHT22;12898;50.520;12.152;2023-02-15T15:56:27;9.60;71.30
24802;DHT22;12898;50.520;12.152;2023-02-15T15:59:04;9.30;73.00
24802;DHT22;12898;50.520;12.152;2023-02-15T16:01:37;9.10;72.90
24802;DHT22;12898;50.520;12.152;2023-02-15T16:04:12;8.80;73.80
24802;DHT22;12898;50.520;12.152;2023-02-15T16:06:40;8.60;74.80
24802;DHT22;12898;50.520;12.152;2023-02-15T16:11:41;8.10;76.30
24802;DHT22;12898;50.520;12.152;2023-02-15T16:14:26;7.90;77.50
24802;DHT22;12898;50.520;12.152;2023-02-15T16:17:00;7.70;78.40
24802;DHT22;12898;50.520;12.152;2023-02-15T16:19:34;7.50;79.80
24802;DHT22;12898;50.520;12.152;2023-02-15T16:22:02;7.40;81.80
24802;DHT22;12898;50.520;12.152;2023-02-15T16:25:17;7.20;83.80
24802;DHT22;12898;50.520;12.152;2023-02-15T16:27:51;7.00;84.30
24802;DHT22;12898;50.520;12.152;2023-02-15T16:33:16;6.80;89.20
24802;DHT22;12898;50.520;12.152;2023-02-15T16:35:56;6.70;90.20
24802;DHT22;12898;50.520;12.152;2023-02-15T16:41:27;6.40;92.30
24802;DHT22;12898;50.520;12.152;2023-02-15T16:43:56;6.30;93.40
24802;DHT22;12898;50.520;12.152;2023-02-15T16:46:38;6.20;94.00
24802;DHT22;12898;50.520;12.152;2023-02-15T16:49:30;6.10;94.90
24802;DHT22;12898;50.520;12.152;2023-02-15T16:52:01;5.90;96.40
24802;DHT22;12898;50.520;12.152;2023-02-15T16:54:31;5.80;97.30
24802;DHT22;12898;50.520;12.152;2023-02-15T16:56:57;5.70;98.20
24802;DHT22;12898;50.520;12.152;2023-02-15T16:59:34;5.60;98.70
24802;DHT22;12898;50.520;12.152;2023-02-15T17:02:05;5.50;99.20
24802;DHT22;12898;50.520;12.152;2023-02-15T17:04:32;5.40;99.90
24802;DHT22;12898;50.520;12.152;2023-02-15T17:07:04;5.40;99.90
24802;DHT22;12898;50.520;12.152;2023-02-15T17:09:31;5.30;99.90
24802;DHT22;12898;50.520;12.152;2023-02-15T17:11:57;5.30;99.90
24802;DHT22;12898;50.520;12.152;2023-02-15T17:14:30;5.20;99.90
24802;DHT22;12898;50.520;12.152;2023-02-15T17:17:07;5.00;99.90
24802;DHT22;12898;50.520;12.152;2023-02-15T17:19:49;5.00;99.90
24802;DHT22;12898;50.520;12.152;2023-02-15T17:22:22;4.90;99.90
24802;DHT22;12898;50.520;12.152;2023-02-15T17:24:50;4.80;99.90
24802;DHT22;12898;50.520;12.152;2023-02-15T17:27:25;4.60;99.90
24802;DHT22;12898;50.520;12.152;2023-02-15T17:30:12;4.50;99.90
24802;DHT22;12898;50.520;12.152;2023-02-15T17:32:58;4.50;99.90
24802;DHT22;12898;50.520;12.152;2023-02-15T17:35:27;4.40;99.90
24802;DHT22;12898;50.520;12.152;2023-02-15T17:38:17;4.30;99.90
24802;DHT22;12898;50.520;12.152;2023-02-15T17:40:44;4.20;99.90
24802;DHT22;12898;50.520;12.152;2023-02-15T17:43:10;4.10;99.90
24802;DHT22;12898;50.520;12.152;2023-02-15T17:45:44;4.10;99.90
24802;DHT22;12898;50.520;12.152;2023-02-15T17:50:46;4.00;99.90
24802;DHT22;12898;50.520;12.152;2023-02-15T17:53:13;3.90;99.90
24802;DHT22;12898;50.520;12.152;2023-02-15T17:55:41;3.80;99.90
24802;DHT22;12898;50.520;12.152;2023-02-15T17:58:10;3.80;99.90
24802;DHT22;12898;50.520;12.152;2023-02-15T18:00:51;3.70;99.90
24802;DHT22;12898;50.520;12.152;2023-02-15T18:03:40;3.60;99.90
24802;DHT22;12898;50.520;12.152;2023-02-15T18:06:26;3.50;99.90
24802;DHT22;12898;50.520;12.152;2023-02-15T18:09:12;3.40;99.90
24802;DHT22;12898;50.520;12.152;2023-02-15T18:11:57;3.40;99.90
24802;DHT22;12898;50.520;12.152;2023-02-15T18:14:23;3.30;99.90
24802;DHT22;12898;50.520;12.152;2023-02-15T18:16:49;3.30;99.90
24802;DHT22;12898;50.520;12.152;2023-02-15T18:19:21;3.30;99.90
24802;DHT22;12898;50.520;12.152;2023-02-15T18:21:48;3.20;99.90
24802;DHT22;12898;50.520;12.152;2023-02-15T18:24:17;3.20;99.90
24802;DHT22;12898;50.520;12.152;2023-02-15T18:26:45;3.10;99.90
24802;DHT22;12898;50.520;12.152;2023-02-15T18:29:11;3.10;99.90
24802;DHT22;12898;50.520;12.152;2023-02-15T18:31:37;3.00;99.90
24802;DHT22;12898;50.520;12.152;2023-02-15T18:34:03;3.00;99.90
24802;DHT22;12898;50.520;12.152;2023-02-15T18:36:32;3.00;99.90
24802;DHT22;12898;50.520;12.152;2023-02-15T18:39:00;2.90;99.90
24802;DHT22;12898;50.520;12.152;2023-02-15T18:41:27;2.90;99.90
24802;DHT22;12898;50.520;12.152;2023-02-15T18:43:53;2.80;99.90
24802;DHT22;12898;50.520;12.152;2023-02-15T18:46:20;2.80;99.90
24802;DHT22;12898;50.520;12.152;2023-02-15T18:48:46;2.80;99.90
24802;DHT22;12898;50.520;12.152;2023-02-15T18:51:17;2.70;99.90
24802;DHT22;12898;50.520;12.152;2023-02-15T18:53:45;2.70;99.90
24802;DHT22;12898;50.520;12.152;2023-02-15T18:56:15;2.70;99.90
24802;DHT22;12898;50.520;12.152;2023-02-15T18:58:43;2.60;99.90
24802;DHT22;12898;50.520;12.152;2023-02-15T19:01:16;2.60;99.90